AKX weather

Aktobe Airport
Aktyubinsk, Aktobe Region, Kazakhstan

Public forecast

Using degrees Celsius for public forecast. Weather courtesy of forecast.io.

METAR (pilot weather report)

Retrieved 2019/04/26 09:30 UTC (0 seconds ago):

UATT 260930Z 10003MPS 060V170 9999 FEW033CB 17/03 Q1012 R13/70D NOSIG RMK QFE739/0986

TAF (pilot weather forecast)

Retrieved 2019/04/26 06:18 UTC (3 hours ago):

TAF UATT 260500Z 2606/2706 10008MPS 9999 BKN030CB TX14/2611Z TN04/2623Z TEMPO 2606/2612 5000 -SHRA BKN020CB BECMG 2612/2614 36008MPS